createdAt,value
2023-05-07T00:00:33.949Z,22.9
2023-05-07T00:15:32.775Z,22.9
2023-05-07T00:30:33.165Z,22.9
2023-05-07T00:45:31.966Z,22.9
2023-05-07T01:00:32.114Z,22.9
2023-05-07T01:15:32.071Z,22.9
2023-05-07T01:30:32.910Z,22.9
2023-05-07T01:45:32.356Z,22.9
2023-05-07T02:00:32.238Z,22.9
2023-05-07T02:15:32.480Z,22.8
2023-05-07T02:30:32.466Z,22.8
2023-05-07T02:45:32.515Z,22.8
2023-05-07T03:00:33.114Z,22.8
2023-05-07T03:15:32.647Z,22.8
2023-05-07T03:30:32.824Z,22.8
2023-05-07T03:45:32.422Z,22.8
2023-05-07T04:00:32.750Z,22.8
2023-05-07T04:15:32.220Z,22.8
2023-05-07T04:30:32.857Z,22.7
2023-05-07T04:45:32.391Z,22.6
2023-05-07T05:00:32.757Z,22.6
2023-05-07T05:15:33.956Z,22.5
2023-05-07T05:30:32.639Z,22.5
2023-05-07T05:45:32.541Z,22.5
2023-05-07T06:00:33.178Z,22.5
2023-05-07T06:15:32.413Z,22.4
2023-05-07T06:30:33.442Z,22.4
2023-05-07T06:45:32.472Z,22.4
2023-05-07T07:00:33.016Z,22.5
2023-05-07T07:15:32.468Z,22.5
2023-05-07T07:30:32.962Z,22.5
2023-05-07T07:45:32.470Z,22.6
2023-05-07T08:00:32.752Z,22.7
2023-05-07T08:15:31.929Z,23.0
2023-05-07T08:30:33.875Z,23.2
2023-05-07T08:45:32.242Z,23.4
2023-05-07T09:00:33.046Z,23.5
2023-05-07T09:15:32.485Z,23.6
2023-05-07T09:30:33.074Z,23.7
2023-05-07T09:45:32.760Z,23.9
2023-05-07T10:00:33.682Z,23.9
2023-05-07T10:15:32.125Z,24.1
2023-05-07T10:30:33.335Z,24.1
2023-05-07T10:45:31.958Z,24.2
2023-05-07T11:00:38.770Z,24.2
2023-05-07T11:15:32.648Z,24.1
2023-05-07T11:30:33.686Z,24.0
2023-05-07T11:45:32.869Z,24
2023-05-07T12:00:33.780Z,24
2023-05-07T12:15:32.385Z,24
2023-05-07T12:30:33.800Z,24.1
2023-05-07T12:45:34.028Z,24.1
2023-05-07T13:00:33.741Z,24.2
2023-05-07T13:15:33.680Z,24.2
2023-05-07T13:30:33.845Z,24.2
2023-05-07T13:45:34.155Z,24.3
2023-05-07T14:00:33.946Z,24.3
2023-05-07T14:15:33.059Z,24.4
2023-05-07T14:30:34.108Z,24.4
2023-05-07T14:45:33.049Z,24.4
2023-05-07T15:00:34.149Z,24.4
2023-05-07T15:15:33.174Z,24.3
2023-05-07T15:30:33.607Z,24.2
2023-05-07T15:45:33.521Z,24.2
2023-05-07T16:00:34.270Z,24.1
2023-05-07T16:15:33.571Z,24.1
2023-05-07T16:30:33.046Z,24.1
2023-05-07T16:45:32.384Z,24.0
2023-05-07T17:00:42.570Z,24
2023-05-07T17:15:32.769Z,24
2023-05-07T17:30:33.077Z,24
2023-05-07T17:45:32.629Z,23.9
2023-05-07T18:00:33.089Z,23.9
2023-05-07T18:15:32.095Z,23.8
2023-05-07T18:30:33.238Z,23.7
2023-05-07T18:45:32.876Z,23.7
2023-05-07T19:00:33.242Z,23.6
2023-05-07T19:15:32.379Z,23.6
2023-05-07T19:30:33.053Z,23.5
2023-05-07T19:45:33.451Z,23.4
2023-05-07T20:00:33.692Z,23.4
2023-05-07T20:15:33.224Z,23.3
2023-05-07T20:30:33.104Z,23.3
2023-05-07T20:45:32.601Z,23.2
2023-05-07T21:00:32.908Z,23.2
2023-05-07T21:15:32.630Z,23.2
2023-05-07T21:30:33.890Z,23.1
2023-05-07T21:45:32.277Z,23.1
2023-05-07T22:00:33.206Z,23.1
2023-05-07T22:15:33.924Z,23.0
2023-05-07T22:30:33.171Z,23
2023-05-07T22:45:32.847Z,23
2023-05-07T23:00:32.537Z,22.9
2023-05-07T23:15:32.135Z,22.9
2023-05-07T23:30:33.656Z,22.8
2023-05-07T23:45:32.378Z,22.8
